Time;durP1;ratioP1;P1;durP2;ratioP2;P2;SDS_P1;SDS_P2;PMS_P1;PMS_P2;Temp;Humidity;BMP_temperature;BMP_pressure;BME280_temperature;BME280_humidity;BME280_pressure;Samples;Min_cycle;Max_cycle;Signal;HPM_P1;HPM_P2
2021/08/31 00:01:35;;;;;;;7.90;6.53;;;;;;;15.59;78.51;101325.25;5059052;28;20640;-77
2021/08/31 00:04:02;;;;;;;7.27;6.00;;;;;;;15.59;78.37;101324.41;5051678;28;20224;-78
2021/08/31 00:06:28;;;;;;;7.13;5.93;;;;;;;15.58;78.21;101323.56;5056088;28;20234;-78
2021/08/31 00:08:55;;;;;;;8.40;6.40;;;;;;;15.56;78.52;101328.19;5050933;28;20299;-79
2021/08/31 00:11:23;;;;;;;6.47;5.87;;;;;;;15.58;78.52;101330.78;5051452;28;20209;-78
2021/08/31 00:13:50;;;;;;;9.03;6.17;;;;;;;15.56;78.54;101324.66;5051208;28;20198;-79
2021/08/31 00:16:17;;;;;;;7.07;6.23;;;;;;;15.55;78.23;101323.81;5052712;28;20203;-79
2021/08/31 00:18:44;;;;;;;6.53;5.93;;;;;;;15.55;78.51;101317.53;5055765;28;20220;-79
2021/08/31 00:21:10;;;;;;;6.80;6.03;;;;;;;15.54;78.19;101316.69;5053355;28;20214;-80
2021/08/31 00:23:37;;;;;;;6.70;5.90;;;;;;;15.53;78.59;101316.78;5053864;28;20558;-78
2021/08/31 00:26:03;;;;;;;7.80;6.17;;;;;;;15.52;78.38;101318.63;5054870;28;20219;-79
2021/08/31 00:28:31;;;;;;;9.03;6.53;;;;;;;15.52;78.56;101315.06;5047915;28;20214;-78
2021/08/31 00:30:58;;;;;;;8.97;6.43;;;;;;;15.51;77.97;101316.91;5051291;28;20206;-77
2021/08/31 00:33:25;;;;;;;8.17;6.50;;;;;;;15.51;78.22;101321.41;5055900;28;20210;-78
2021/08/31 00:35:51;;;;;;;7.17;6.07;;;;;;;15.50;78.32;101317.00;5059529;28;20223;-78
2021/08/31 00:38:18;;;;;;;9.63;6.63;;;;;;;15.49;78.22;101317.97;5052201;28;20210;-81
2021/08/31 00:40:46;;;;;;;6.37;5.77;;;;;;;15.49;78.39;101315.28;5054779;28;20572;-79
2021/08/31 00:43:13;;;;;;;6.83;6.13;;;;;;;15.47;78.29;101307.34;5053850;28;20257;-79
2021/08/31 00:45:41;;;;;;;6.77;5.87;;;;;;;15.48;78.23;101310.88;5055239;28;20225;-79
2021/08/31 00:48:07;;;;;;;7.00;6.23;;;;;;;15.47;78.18;101314.53;5058588;28;20206;-78
2021/08/31 00:50:34;;;;;;;6.77;6.17;;;;;;;15.47;78.50;101310.03;5059998;28;20210;-79
2021/08/31 00:53:01;;;;;;;7.90;6.03;;;;;;;15.45;78.52;101306.59;5053853;28;20206;-77
2021/08/31 00:55:27;;;;;;;6.83;6.13;;;;;;;15.44;78.31;101309.41;5046037;28;20231;-78
2021/08/31 00:57:54;;;;;;;7.77;6.70;;;;;;;15.41;78.48;101305.09;5055577;28;20207;-79
2021/08/31 01:00:21;;;;;;;7.77;6.27;;;;;;;15.39;78.50;101300.84;5057403;28;21112;-78
2021/08/31 01:02:49;;;;;;;8.17;6.80;;;;;;;15.37;78.56;101306.31;5062086;28;20637;-78
2021/08/31 01:05:16;;;;;;;6.07;5.47;;;;;;;15.37;78.51;101308.16;5055863;28;20224;-78
2021/08/31 01:07:42;;;;;;;6.47;5.87;;;;;;;15.34;78.70;101303.84;5052490;28;20232;-78
2021/08/31 01:10:10;;;;;;;8.43;6.20;;;;;;;15.33;78.60;101310.19;5054382;28;20288;-78
2021/08/31 01:12:37;;;;;;;8.10;5.87;;;;;;;15.32;78.80;101304.94;5055933;28;20304;-78
2021/08/31 01:15:04;;;;;;;6.80;6.20;;;;;;;15.31;79.12;101308.59;5055385;28;20226;-78
2021/08/31 01:17:31;;;;;;;7.57;6.37;;;;;;;15.29;78.84;101303.31;5056996;28;20217;-78
2021/08/31 01:20:01;;;;;;;7.83;6.53;;;;;;;15.28;78.93;101310.50;5053772;28;20218;-79
2021/08/31 01:22:28;;;;;;;7.90;6.07;;;;;;;15.28;79.11;101315.03;5054371;28;20203;-78
2021/08/31 01:24:57;;;;;;;9.57;6.80;;;;;;;15.27;79.09;101316.00;5059228;28;20225;-79
2021/08/31 01:27:25;;;;;;;8.00;6.77;;;;;;;15.24;79.17;101309.03;5053718;28;20222;-78
2021/08/31 01:29:53;;;;;;;7.47;6.80;;;;;;;15.24;79.28;101311.69;5054269;28;20205;-78
2021/08/31 01:32:19;;;;;;;7.03;6.43;;;;;;;15.22;79.15;101316.34;5054187;28;20568;-78
2021/08/31 01:34:46;;;;;;;8.03;7.23;;;;;;;15.21;79.42;101314.63;5049240;28;20696;-78
2021/08/31 01:37:13;;;;;;;9.83;7.70;;;;;;;15.21;79.54;101319.13;5053056;28;20199;-78
2021/08/31 01:39:41;;;;;;;8.70;7.73;;;;;;;15.21;79.15;101327.19;5044133;28;20214;-79
2021/08/31 01:42:09;;;;;;;8.43;7.37;;;;;;;15.19;79.42;101332.66;5052695;28;20208;-78
2021/08/31 01:44:35;;;;;;;9.00;7.20;;;;;;;15.17;79.69;101331.91;5050583;28;20230;-80
2021/08/31 01:47:02;;;;;;;8.43;7.63;;;;;;;15.16;79.83;101338.25;5053889;28;20221;-79
2021/08/31 01:49:29;;;;;;;8.87;7.23;;;;;;;15.16;79.74;101338.25;5053201;28;20585;-79
2021/08/31 01:51:55;;;;;;;8.20;7.50;;;;;;;15.16;79.98;101329.34;5057563;28;20216;-79
2021/08/31 01:54:22;;;;;;;8.83;8.03;;;;;;;15.15;80.30;101331.16;5053722;28;20244;-79
2021/08/31 01:56:48;;;;;;;8.20;7.40;;;;;;;15.16;80.47;101329.34;5057076;28;20203;-79
2021/08/31 01:59:16;;;;;;;10.07;8.03;;;;;;;15.14;80.25;101340.19;5046271;28;20206;-79
2021/08/31 02:01:43;;;;;;;9.53;8.10;;;;;;;15.15;80.24;101341.03;5054167;28;20212;-78
2021/08/31 02:04:09;;;;;;;10.10;7.70;;;;;;;15.14;80.48;101337.50;5053765;28;20742;-79
2021/08/31 02:06:36;;;;;;;9.47;8.13;;;;;;;15.12;80.49;101336.75;5055644;28;20221;-79
2021/08/31 02:09:03;;;;;;;9.37;8.57;;;;;;;15.13;80.77;101335.78;5055111;28;20213;-79
2021/08/31 02:11:29;;;;;;;9.53;8.17;;;;;;;15.12;80.92;101347.47;5058209;28;20292;-79
2021/08/31 02:13:56;;;;;;;9.07;8.17;;;;;;;15.11;81.17;101337.72;5052627;28;20230;-79
2021/08/31 02:16:24;;;;;;;9.17;8.10;;;;;;;15.11;80.91;101345.75;5053064;28;20201;-79
2021/08/31 02:18:50;;;;;;;9.60;7.80;;;;;;;15.09;81.31;101353.06;5056562;28;20214;-79
2021/08/31 02:21:17;;;;;;;9.27;8.37;;;;;;;15.09;81.14;101355.72;5052716;28;20198;-79
2021/08/31 02:23:43;;;;;;;11.50;9.13;;;;;;;15.09;81.40;101353.06;5054288;28;20208;-79
2021/08/31 02:26:10;;;;;;;8.53;7.73;;;;;;;15.08;81.42;101347.78;5055922;28;20213;-80
2021/08/31 02:28:36;;;;;;;10.27;9.03;;;;;;;15.06;81.70;101357.78;5054326;28;20210;-79
2021/08/31 02:31:03;;;;;;;11.43;8.93;;;;;;;15.06;81.78;101353.25;5059982;28;20208;-79
2021/08/31 02:33:31;;;;;;;9.90;8.93;;;;;;;15.05;82.13;101351.53;5055121;28;20202;-79
2021/08/31 02:35:57;;;;;;;11.67;10.17;;;;;;;15.05;82.41;101358.75;5061931;28;20208;-79
2021/08/31 02:38:24;;;;;;;11.67;10.47;;;;;;;15.03;82.20;101356.19;5054484;28;20198;-78
2021/08/31 02:40:50;;;;;;;14.67;11.73;;;;;;;15.03;82.43;101353.50;5052574;28;20206;-78
2021/08/31 02:43:17;;;;;;;12.47;11.27;;;;;;;15.04;82.59;101349.00;5043195;28;20214;-79
2021/08/31 02:45:44;;;;;;;12.50;11.23;;;;;;;15.03;82.73;101344.59;5049049;28;20229;-78
2021/08/31 02:48:10;;;;;;;13.50;11.40;;;;;;;15.02;83.17;101341.06;5053204;28;20233;-79
2021/08/31 02:50:38;;;;;;;12.77;11.47;;;;;;;15.02;83.08;101335.69;5051557;28;20201;-79
2021/08/31 02:53:05;;;;;;;12.40;11.10;;;;;;;15.02;83.13;101337.50;5060143;28;20209;-79
2021/08/31 02:55:31;;;;;;;13.13;11.27;;;;;;;15.02;83.11;101340.19;5051104;28;20236;-80
2021/08/31 02:57:58;;;;;;;12.13;10.80;;;;;;;15.02;83.32;101345.56;5052501;28;20236;-79
2021/08/31 03:00:30;;;;;;;13.77;11.27;;;;;;;15.00;83.79;101337.63;5057887;28;20201;-79
2021/08/31 03:02:57;;;;;;;14.33;11.10;;;;;;;14.98;83.51;101328.81;5056859;28;20543;-79
2021/08/31 03:05:23;;;;;;;13.33;11.93;;;;;;;14.96;83.66;101336.13;5058676;28;20225;-80
2021/08/31 03:07:52;;;;;;;13.37;11.60;;;;;;;14.93;84.15;101330.97;5061898;28;20229;-78
2021/08/31 03:10:19;;;;;;;13.17;11.77;;;;;;;14.91;84.03;101332.88;5052703;28;20231;-79
2021/08/31 03:12:45;;;;;;;13.83;11.63;;;;;;;14.90;84.10;101328.50;5053706;28;20277;-78
2021/08/31 03:15:12;;;;;;;14.13;12.30;;;;;;;14.88;84.19;101335.78;5056428;28;20217;-78
2021/08/31 03:17:39;;;;;;;15.40;12.47;;;;;;;14.85;84.81;101328.84;5059273;28;20201;-79
2021/08/31 03:20:07;;;;;;;13.57;12.17;;;;;;;14.83;84.68;101327.22;5056113;28;20209;-79
2021/08/31 03:22:33;;;;;;;14.13;12.33;;;;;;;14.80;84.62;101339.03;5066717;28;20580;-79
2021/08/31 03:25:01;;;;;;;13.40;11.83;;;;;;;14.79;84.89;101340.00;5058998;28;20699;-79
2021/08/31 03:27:28;;;;;;;14.47;13.07;;;;;;;14.77;85.22;101336.56;5056224;28;20229;-79
2021/08/31 03:29:54;;;;;;;15.70;13.37;;;;;;;14.76;85.22;101329.47;5057136;28;20211;-78
2021/08/31 03:32:21;;;;;;;15.07;13.43;;;;;;;14.75;85.52;101325.06;5060148;28;20222;-79
2021/08/31 03:34:47;;;;;;;18.93;13.70;;;;;;;14.74;85.52;101323.34;5061497;28;20237;-79
2021/08/31 03:37:14;;;;;;;14.00;12.50;;;;;;;14.76;85.78;101328.59;5057126;28;20205;-79
2021/08/31 03:39:40;;;;;;;16.17;13.47;;;;;;;14.74;85.91;101326.03;5053167;28;20212;-79
2021/08/31 03:42:08;;;;;;;16.47;14.43;;;;;;;14.75;86.15;101326.91;5054469;28;20201;-78
2021/08/31 03:44:35;;;;;;;17.77;13.93;;;;;;;14.75;86.70;101333.13;5049263;28;20232;-79
2021/08/31 03:47:01;;;;;;;16.33;14.50;;;;;;;14.74;86.96;101323.34;5054799;28;20229;-79
2021/08/31 03:49:28;;;;;;;16.87;14.23;;;;;;;14.76;87.07;101334.84;5052019;28;20213;-79
2021/08/31 03:51:54;;;;;;;17.93;15.53;;;;;;;14.77;86.97;101333.00;5059515;28;20574;-79
2021/08/31 03:54:21;;;;;;;18.37;14.43;;;;;;;14.77;87.18;101333.88;5056779;28;20221;-79
2021/08/31 03:56:47;;;;;;;18.87;15.37;;;;;;;14.77;87.13;101341.91;5046963;28;20202;-79
2021/08/31 03:59:15;;;;;;;17.27;15.47;;;;;;;14.79;87.43;101342.66;5056250;28;20198;-79
2021/08/31 04:01:42;;;;;;;16.90;15.10;;;;;;;14.79;87.51;101344.50;5057199;28;20295;-79
2021/08/31 04:04:09;;;;;;;16.47;14.43;;;;;;;14.79;87.91;101350.72;5054300;28;20222;-79
2021/08/31 04:06:35;;;;;;;19.33;16.27;;;;;;;14.80;87.54;101349.75;5056411;28;20233;-80
2021/08/31 04:09:02;;;;;;;16.63;14.80;;;;;;;14.80;87.95;101341.72;5058150;28;20217;-79
2021/08/31 04:11:28;;;;;;;17.73;15.60;;;;;;;14.79;88.10;101344.50;5057633;28;20620;-78
2021/08/31 04:13:55;;;;;;;20.53;16.77;;;;;;;14.80;88.43;101346.22;5056145;28;20225;-79
2021/08/31 04:16:22;;;;;;;18.17;16.07;;;;;;;14.81;88.40;101350.59;5057732;28;20288;-79
2021/08/31 04:18:49;;;;;;;17.73;15.03;;;;;;;14.80;88.27;101349.75;5053413;28;20198;-80
2021/08/31 04:21:15;;;;;;;19.83;16.13;;;;;;;14.79;88.41;101348.03;5048441;28;20202;-79
2021/08/31 04:23:42;;;;;;;17.87;15.97;;;;;;;14.80;88.51;101347.06;5062263;28;20319;-80
2021/08/31 04:26:09;;;;;;;19.33;16.70;;;;;;;14.80;88.68;101351.56;5061167;28;20561;-80
2021/08/31 04:28:35;;;;;;;18.17;16.23;;;;;;;14.79;88.76;101355.22;5062416;28;20232;-80
2021/08/31 04:31:02;;;;;;;21.93;17.00;;;;;;;14.80;88.70;101363.16;5057708;28;20205;-79
2021/08/31 04:33:30;;;;;;;18.07;14.77;;;;;;;14.79;88.64;101361.44;5055048;28;20260;-79
2021/08/31 04:35:56;;;;;;;20.20;16.50;;;;;;;14.79;88.62;101365.94;5057517;28;20222;-79
2021/08/31 04:38:23;;;;;;;20.60;16.47;;;;;;;14.78;88.69;101365.09;5054777;28;20636;-79
2021/08/31 04:40:49;;;;;;;17.83;16.00;;;;;;;14.77;88.64;101367.88;5051591;28;20206;-78
2021/08/31 04:43:16;;;;;;;19.93;17.03;;;;;;;14.76;88.96;101367.00;5045632;28;20201;-78
2021/08/31 04:45:42;;;;;;;20.30;16.53;;;;;;;14.75;88.73;101372.47;5060060;28;20703;-78
2021/08/31 04:48:09;;;;;;;17.53;15.23;;;;;;;14.74;88.77;101373.44;5052703;28;20248;-79
2021/08/31 04:50:37;;;;;;;19.50;16.07;;;;;;;14.72;88.70;101375.38;5047846;28;20214;-78
2021/08/31 04:53:03;;;;;;;18.43;14.97;;;;;;;14.71;88.76;101376.31;5052897;28;20604;-79
2021/08/31 04:55:30;;;;;;;21.30;15.07;;;;;;;14.69;88.78;101364.88;5048379;28;20228;-79
2021/08/31 04:57:56;;;;;;;18.43;15.90;;;;;;;14.66;88.68;101360.59;5053324;28;20204;-79
2021/08/31 05:00:23;;;;;;;18.67;15.93;;;;;;;14.64;88.78;101365.19;5048652;28;20225;-79
2021/08/31 05:02:51;;;;;;;18.07;15.47;;;;;;;14.63;88.75;101378.69;5051883;28;20206;-80
2021/08/31 05:05:17;;;;;;;17.17;15.37;;;;;;;14.62;88.96;101376.97;5048391;28;20226;-77
2021/08/31 05:07:45;;;;;;;19.70;15.53;;;;;;;14.58;89.06;101385.22;5048396;28;20229;-79
2021/08/31 05:10:13;;;;;;;18.77;16.17;;;;;;;14.56;88.73;101375.56;5042170;28;20245;-80
2021/08/31 05:12:40;;;;;;;16.93;14.70;;;;;;;14.55;89.11;101384.56;5044195;28;20239;-81
2021/08/31 05:15:08;;;;;;;17.20;15.40;;;;;;;14.51;89.12;101381.22;5045163;28;20716;-80
2021/08/31 05:17:35;;;;;;;16.27;14.57;;;;;;;14.51;88.75;101388.44;5051286;28;20198;-79
2021/08/31 05:20:04;;;;;;;17.73;14.27;;;;;;;14.50;88.67;101392.09;5044858;28;20218;-81
2021/08/31 05:22:31;;;;;;;17.30;15.10;;;;;;;14.49;88.89;101396.59;5049674;28;20206;-80
2021/08/31 05:25:01;;;;;;;19.67;14.70;;;;;;;14.47;88.75;101398.50;5049016;28;20260;-80
2021/08/31 05:27:28;;;;;;;18.50;14.60;;;;;;;14.45;88.58;101399.56;5053161;28;20225;-80
2021/08/31 05:29:54;;;;;;;16.57;14.50;;;;;;;14.43;88.61;101401.50;5043375;28;20648;-81
2021/08/31 05:32:22;;;;;;;19.07;14.50;;;;;;;14.42;88.78;101397.09;5044493;28;20214;-80
2021/08/31 05:34:49;;;;;;;18.13;14.50;;;;;;;14.40;88.58;101402.56;5042586;28;20214;-80
2021/08/31 05:37:17;;;;;;;18.50;14.90;;;;;;;14.41;88.79;101404.28;5046101;28;20217;-80
2021/08/31 05:39:43;;;;;;;18.53;14.83;;;;;;;14.39;88.26;101405.31;5048948;28;20273;-81
2021/08/31 05:42:13;;;;;;;16.50;14.50;;;;;;;14.39;88.70;101407.97;5049856;28;20660;-80
2021/08/31 05:44:40;;;;;;;23.73;15.03;;;;;;;14.38;88.74;101404.44;5043767;28;20225;-80
2021/08/31 05:47:08;;;;;;;18.97;14.63;;;;;;;14.37;88.75;101407.22;5044578;28;20216;-80
2021/08/31 05:49:35;;;;;;;18.20;14.80;;;;;;;14.37;88.89;101408.09;5047635;28;20232;-81
2021/08/31 05:52:02;;;;;;;16.40;14.33;;;;;;;14.38;88.83;101409.81;5045420;28;20209;-81
2021/08/31 05:54:29;;;;;;;17.03;14.83;;;;;;;14.38;88.87;101415.16;5041892;28;20252;-80
2021/08/31 05:56:56;;;;;;;16.17;14.37;;;;;;;14.40;88.28;101407.91;5046730;28;20206;-80
2021/08/31 05:59:24;;;;;;;17.10;14.77;;;;;;;14.41;88.47;101419.50;5040738;28;20202;-80
2021/08/31 06:01:50;;;;;;;20.43;14.87;;;;;;;14.41;88.56;101419.50;5049470;28;20205;-80
2021/08/31 06:04:17;;;;;;;19.20;14.53;;;;;;;14.40;88.15;101417.75;5043146;28;20312;-79
2021/08/31 06:06:44;;;;;;;15.30;13.60;;;;;;;14.38;88.23;101425.88;5043874;28;20203;-78
2021/08/31 06:09:10;;;;;;;17.97;14.07;;;;;;;14.37;88.47;101429.53;5041677;28;20241;-77
2021/08/31 06:11:40;;;;;;;15.83;14.13;;;;;;;14.35;88.17;101418.03;5040588;28;20281;-78
2021/08/31 06:14:07;;;;;;;16.87;14.30;;;;;;;14.37;88.08;101424.16;5042474;28;20225;-79
2021/08/31 06:16:39;;;;;;;18.40;14.33;;;;;;;14.39;88.52;101427.59;5045254;28;20209;-79
2021/08/31 06:19:05;;;;;;;18.20;14.17;;;;;;;14.41;87.91;101435.56;5039337;28;20210;-79
2021/08/31 06:21:32;;;;;;;17.47;14.57;;;;;;;14.43;88.13;101430.97;5043884;28;20236;-78
2021/08/31 06:23:59;;;;;;;19.30;15.20;;;;;;;14.46;88.36;101430.78;5041542;28;20287;-80
2021/08/31 06:26:26;;;;;;;18.37;14.23;;;;;;;14.48;87.99;101426.16;5044965;28;20217;-80
2021/08/31 06:28:53;;;;;;;18.10;14.73;;;;;;;14.54;88.08;101425.75;5046637;28;20233;-79
2021/08/31 06:31:19;;;;;;;16.87;14.27;;;;;;;14.61;88.21;101426.19;5046342;28;20279;-79
2021/08/31 06:33:47;;;;;;;17.67;15.33;;;;;;;14.66;88.23;101424.06;5043873;28;20592;-79
2021/08/31 06:36:15;;;;;;;18.77;14.33;;;;;;;14.70;88.01;101436.28;5043271;28;20203;-81
2021/08/31 06:38:41;;;;;;;17.73;14.97;;;;;;;14.72;88.18;101434.34;5046971;28;20201;-79
2021/08/31 06:41:08;;;;;;;23.47;15.27;;;;;;;14.73;87.74;101438.75;5039823;28;20680;-79
2021/08/31 06:43:34;;;;;;;18.13;15.60;;;;;;;14.74;87.36;101430.59;5038251;28;20211;-80
2021/08/31 06:46:01;;;;;;;18.00;14.90;;;;;;;14.77;87.48;101429.53;5036500;28;20202;-80
2021/08/31 06:48:27;;;;;;;24.17;15.27;;;;;;;14.81;87.66;101431.91;5045028;28;20233;-79
2021/08/31 06:50:55;;;;;;;16.83;14.73;;;;;;;14.88;87.21;101432.34;5041931;28;20208;-80
2021/08/31 06:53:22;;;;;;;18.80;15.70;;;;;;;14.94;87.42;101446.19;5046453;28;20587;-79
2021/08/31 06:55:48;;;;;;;19.37;15.17;;;;;;;15.03;87.07;101435.81;5045884;28;20229;-79
2021/08/31 06:58:15;;;;;;;17.87;14.77;;;;;;;15.09;87.15;101446.09;5041569;28;20294;-80
2021/08/31 07:00:41;;;;;;;19.20;15.97;;;;;;;15.16;86.69;101442.03;5048374;28;20314;-80
2021/08/31 07:03:08;;;;;;;19.17;16.07;;;;;;;15.22;86.69;101450.53;5046757;28;20206;-79
2021/08/31 07:05:34;;;;;;;17.70;15.27;;;;;;;15.30;86.65;101447.28;5042897;28;20222;-79
2021/08/31 07:08:02;;;;;;;20.17;14.97;;;;;;;15.42;86.50;101449.09;5040736;28;20588;-79
2021/08/31 07:10:29;;;;;;;21.03;15.30;;;;;;;15.52;86.10;101449.31;5043327;28;20202;-78
2021/08/31 07:12:55;;;;;;;20.23;15.10;;;;;;;15.67;86.17;101452.75;5048531;28;20289;-78
2021/08/31 07:15:22;;;;;;;20.63;14.90;;;;;;;15.77;85.81;101451.09;5047153;28;20222;-79
2021/08/31 07:17:48;;;;;;;19.00;16.07;;;;;;;15.89;85.37;101463.66;5045878;28;20207;-80
2021/08/31 07:20:15;;;;;;;19.47;16.13;;;;;;;15.99;84.85;101456.63;5044544;28;20233;-79
2021/08/31 07:22:42;;;;;;;18.33;16.00;;;;;;;16.09;84.51;101467.59;5043380;28;20212;-79
2021/08/31 07:25:11;;;;;;;21.57;16.53;;;;;;;16.16;84.02;101458.94;5039056;28;20322;-79
2021/08/31 07:27:37;;;;;;;19.67;15.37;;;;;;;16.22;83.41;101452.25;5040906;28;20203;-80
2021/08/31 07:30:05;;;;;;;17.60;15.00;;;;;;;16.25;82.90;101460.97;5040261;28;20259;-79
2021/08/31 07:32:32;;;;;;;19.97;15.97;;;;;;;16.26;82.25;101461.81;5046590;28;20211;-79
2021/08/31 07:34:59;;;;;;;19.67;17.00;;;;;;;16.26;82.08;101462.69;5042755;28;20227;-79
2021/08/31 07:37:25;;;;;;;18.17;16.33;;;;;;;16.32;81.78;101467.59;5046233;28;20203;-79
2021/08/31 07:39:52;;;;;;;18.80;16.23;;;;;;;16.42;81.74;101472.28;5041501;28;20208;-79
2021/08/31 07:42:20;;;;;;;19.63;17.57;;;;;;;16.52;81.40;101471.47;5043333;28;20212;-79
2021/08/31 07:44:46;;;;;;;21.50;16.73;;;;;;;16.60;81.13;101478.97;5042306;28;20574;-79
2021/08/31 07:47:14;;;;;;;20.67;15.27;;;;;;;16.70;80.89;101473.78;5050394;28;20208;-79
2021/08/31 07:49:41;;;;;;;18.30;15.40;;;;;;;16.78;80.54;101474.94;5047124;28;20754;-80
2021/08/31 07:52:07;;;;;;;20.83;15.60;;;;;;;16.87;80.32;101471.50;5045841;28;20211;-79
2021/08/31 07:54:34;;;;;;;17.77;15.30;;;;;;;16.90;79.62;101468.59;5041933;28;20221;-80
2021/08/31 07:57:00;;;;;;;18.93;15.37;;;;;;;16.92;79.16;101472.03;5045005;28;20208;-80
2021/08/31 07:59:31;;;;;;;19.73;15.30;;;;;;;16.99;79.07;101483.19;5044995;28;20216;-83
2021/08/31 08:01:58;;;;;;;19.07;16.53;;;;;;;17.04;78.91;101478.28;5050566;28;20516;-78
2021/08/31 08:04:26;;;;;;;18.13;15.00;;;;;;;17.10;78.70;101477.81;5049623;28;20710;-79
2021/08/31 08:06:52;;;;;;;16.43;14.70;;;;;;;17.13;78.15;101477.59;5045759;28;20218;-80
2021/08/31 08:09:19;;;;;;;19.07;14.63;;;;;;;17.15;77.90;101472.94;5055465;28;20250;-78
2021/08/31 08:11:45;;;;;;;16.90;14.83;;;;;;;17.17;77.93;101478.22;5049783;28;20674;-78
2021/08/31 08:14:13;;;;;;;16.63;14.40;;;;;;;17.25;78.00;101471.25;5060444;28;20228;-78
2021/08/31 08:16:41;;;;;;;20.13;14.90;;;;;;;17.34;77.87;101469.69;5059497;28;20211;-80
2021/08/31 08:19:07;;;;;;;15.47;13.60;;;;;;;17.42;77.58;101472.59;5055607;28;20213;-84
2021/08/31 08:21:34;;;;;;;17.97;13.13;;;;;;;17.50;76.88;101477.41;5055333;28;20218;-78
2021/08/31 08:24:00;;;;;;;15.93;14.07;;;;;;;17.57;76.79;101475.91;5054889;28;20340;-78
2021/08/31 08:26:27;;;;;;;15.50;12.87;;;;;;;17.68;76.58;101479.53;5061289;28;20935;-77
2021/08/31 08:28:53;;;;;;;15.13;13.53;;;;;;;17.76;75.61;101468.09;5055154;28;20234;-78
2021/08/31 08:31:20;;;;;;;15.70;12.93;;;;;;;17.86;75.59;101474.50;5058322;28;20203;-83
2021/08/31 08:33:48;;;;;;;14.57;12.03;;;;;;;17.97;75.33;101476.28;5053667;28;20673;-80
2021/08/31 08:36:15;;;;;;;12.53;11.33;;;;;;;18.05;74.95;101476.53;5053739;28;20210;-80
2021/08/31 08:38:41;;;;;;;12.73;11.30;;;;;;;18.13;74.40;101481.28;5054313;28;20688;-79
2021/08/31 08:41:08;;;;;;;12.43;11.10;;;;;;;18.19;73.98;101476.25;5054146;28;20209;-80
2021/08/31 08:43:36;;;;;;;11.90;9.90;;;;;;;18.29;74.01;101481.75;5048416;28;20747;-80
2021/08/31 08:46:05;;;;;;;11.33;9.77;;;;;;;18.41;73.66;101480.75;5053180;28;20265;-79
2021/08/31 08:48:32;;;;;;;12.17;10.87;;;;;;;18.49;73.18;101472.84;5054961;28;20233;-79
2021/08/31 08:51:02;;;;;;;12.17;9.90;;;;;;;18.61;72.61;101476.41;5044154;28;20210;-77
2021/08/31 08:53:30;;;;;;;11.53;10.33;;;;;;;18.69;72.01;101473.91;5041552;28;20204;-77
2021/08/31 08:56:00;;;;;;;11.80;10.53;;;;;;;18.78;71.98;101473.16;5042128;28;20231;-77
2021/08/31 08:58:26;;;;;;;11.47;10.07;;;;;;;18.86;70.95;101486.84;5043047;28;20305;-80
2021/08/31 09:01:05;;;;;;;12.07;9.33;;;;;;;18.94;70.77;101486.19;5041428;28;20212;-79
2021/08/31 09:03:33;;;;;;;10.87;9.17;;;;;;;18.97;69.48;101481.41;5037291;28;20212;-82
2021/08/31 09:06:15;;;;;;;10.20;9.20;;;;;;;19.02;69.47;101484.53;5050707;28;20705;-77
2021/08/31 09:08:54;;;;;;;9.10;8.20;;;;;;;19.09;68.86;101482.19;5041625;28;20230;-80
2021/08/31 09:11:26;;;;;;;11.30;8.33;;;;;;;19.17;68.44;101476.97;5043305;28;20202;-78
2021/08/31 09:14:13;;;;;;;10.17;9.17;;;;;;;19.28;68.69;101481.44;5042976;28;20651;-80
2021/08/31 09:16:40;;;;;;;12.10;9.33;;;;;;;19.37;68.49;101476.09;5052290;28;20558;-78
2021/08/31 09:19:07;;;;;;;10.03;8.67;;;;;;;19.49;68.76;101479.59;5042245;28;20216;-79
2021/08/31 09:21:36;;;;;;;10.17;8.07;;;;;;;19.60;67.94;101478.66;5043752;28;21645;-80
2021/08/31 09:24:03;;;;;;;9.27;7.97;;;;;;;19.66;67.66;101478.97;5044017;28;20225;-79
2021/08/31 09:26:41;;;;;;;9.37;7.53;;;;;;;19.76;67.15;101476.31;5045323;28;20205;-80
2021/08/31 09:29:19;;;;;;;8.67;7.20;;;;;;;19.81;66.30;101478.59;5043568;28;20712;-81
2021/08/31 09:31:52;;;;;;;7.80;7.00;;;;;;;19.85;66.01;101480.06;5051636;28;20211;-78
2021/08/31 09:34:40;;;;;;;8.70;7.60;;;;;;;19.95;65.82;101479.09;5048482;28;20232;-79
2021/08/31 09:37:45;;;;;;;8.60;7.67;;;;;;;20.07;65.12;101477.13;5049567;28;20207;-80
2021/08/31 09:40:15;;;;;;;8.23;7.20;;;;;;;20.13;64.54;101476.56;4991401;28;20202;-81
2021/08/31 09:43:00;;;;;;;8.30;7.40;;;;;;;20.21;64.54;101475.88;4993334;28;20207;-80
2021/08/31 09:45:29;;;;;;;8.13;6.93;;;;;;;20.29;64.01;101476.03;5025757;28;20711;-82
2021/08/31 09:47:57;;;;;;;9.63;7.73;;;;;;;20.33;63.55;101481.03;5048577;28;20208;-80
2021/08/31 09:50:30;;;;;;;10.30;7.60;;;;;;;20.39;63.48;101483.22;5048185;28;20228;-80
2021/08/31 09:53:06;;;;;;;8.77;7.87;;;;;;;20.47;63.31;101479.78;5051033;28;20813;-77
2021/08/31 09:55:34;;;;;;;10.80;7.83;;;;;;;20.52;63.27;101464.00;5039939;28;20224;-78
2021/08/31 09:58:08;;;;;;;8.97;8.07;;;;;;;20.60;62.62;101474.13;5047951;28;20576;-80
2021/08/31 10:00:35;;;;;;;8.27;7.47;;;;;;;20.67;62.80;101469.84;5044455;28;20899;-79
2021/08/31 10:03:01;;;;;;;8.82;6.78;;;;;;;20.72;61.94;101476.53;5048176;28;20292;-79
2021/08/31 10:05:29;;;;;;;8.57;7.57;;;;;;;20.76;61.73;101471.69;5049437;28;20763;-79
2021/08/31 10:07:57;;;;;;;7.27;6.57;;;;;;;20.87;61.77;101476.09;5048986;28;20204;-80
2021/08/31 10:10:25;;;;;;;7.70;6.27;;;;;;;20.97;61.64;101476.94;5045302;28;20221;-80
2021/08/31 10:12:52;;;;;;;11.70;6.97;;;;;;;21.03;60.93;101476.38;5046145;28;20208;-79
2021/08/31 10:15:21;;;;;;;8.43;7.63;;;;;;;21.10;60.90;101472.09;5051081;28;20231;-79
2021/08/31 10:17:50;;;;;;;9.43;8.53;;;;;;;21.18;60.68;101468.63;5041188;28;20606;-80
2021/08/31 10:20:20;;;;;;;9.48;7.55;;;;;;;21.24;60.38;101466.25;5044098;28;20219;-81
2021/08/31 10:22:48;;;;;;;8.82;7.80;;;;;;;21.26;60.03;101477.78;5043165;28;20206;-78
2021/08/31 10:25:15;;;;;;;10.15;8.30;;;;;;;21.25;59.99;101476.06;5046432;28;20254;-78
2021/08/31 10:27:44;;;;;;;8.60;7.50;;;;;;;21.30;60.14;101479.22;5051473;28;20218;-80
2021/08/31 10:30:36;;;;;;;8.77;7.88;;;;;;;21.33;59.91;101473.47;5049253;28;20319;-79
2021/08/31 10:33:05;;;;;;;8.63;7.03;;;;;;;21.37;59.70;101469.47;5045544;28;20205;-79
2021/08/31 10:35:53;;;;;;;6.53;5.47;;;;;;;21.38;58.93;101473.91;5055719;28;20224;-78
2021/08/31 10:38:48;;;;;;;7.43;6.73;;;;;;;21.36;58.37;101473.19;5044674;28;20284;-80
2021/08/31 10:41:49;;;;;;;7.85;6.47;;;;;;;21.39;58.51;101475.59;5041480;28;20205;-80
2021/08/31 10:44:42;;;;;;;7.83;7.03;;;;;;;21.47;58.72;101481.16;5047279;28;20227;-77
2021/08/31 10:47:17;;;;;;;6.90;6.13;;;;;;;21.59;58.55;101486.38;5059117;28;20197;-80
2021/08/31 10:50:18;;;;;;;7.72;6.93;;;;;;;21.68;57.76;101489.03;5049035;28;20209;-78
2021/08/31 10:52:49;;;;;;;8.50;6.82;;;;;;;21.73;57.92;101485.91;5049086;28;20208;-78
2021/08/31 10:55:34;;;;;;;6.95;6.07;;;;;;;21.83;57.52;101486.72;5051039;28;20744;-80
2021/08/31 10:58:04;;;;;;;7.47;6.00;;;;;;;21.92;56.78;101484.97;5038724;28;20679;-80
2021/08/31 11:00:53;;;;;;;9.30;6.07;;;;;;;21.97;56.30;101482.66;5045378;28;20583;-80
2021/08/31 11:03:34;;;;;;;6.10;5.50;;;;;;;22.01;56.34;101479.53;5041997;28;20252;-81
2021/08/31 11:06:28;;;;;;;6.68;5.45;;;;;;;22.08;56.30;101486.03;5044520;28;20299;-79
2021/08/31 11:09:23;;;;;;;6.75;6.10;;;;;;;22.17;56.19;101484.28;5031377;28;20224;-80
2021/08/31 11:12:09;;;;;;;8.25;6.55;;;;;;;22.24;55.47;101479.94;5048642;28;20220;-77
2021/08/31 11:14:50;;;;;;;6.70;6.10;;;;;;;22.30;55.94;101489.34;5051039;28;20221;-79
2021/08/31 11:17:37;;;;;;;8.10;6.55;;;;;;;22.37;55.93;101488.59;5041714;28;20607;-78
2021/08/31 11:20:25;;;;;;;7.95;6.85;;;;;;;22.47;56.02;101486.66;5044282;28;20298;-78
2021/08/31 11:22:55;;;;;;;7.22;6.53;;;;;;;22.51;55.19;101485.34;5038345;28;20656;-78
2021/08/31 11:25:29;;;;;;;7.55;6.05;;;;;;;22.56;55.12;101490.31;5045669;28;20225;-78